Time;durP1;ratioP1;P1;durP2;ratioP2;P2;SDS_P1;SDS_P2;PMS_P1;PMS_P2;Temp;Humidity;BMP_temperature;BMP_pressure;BME280_temperature;BME280_humidity;BME280_pressure;Samples;Min_cycle;Max_cycle;Signal;HPM_P1;HPM_P2
2022/04/18 00:02:09;;;;;;;21.48;13.63;;;;;;;;;;5055287;28;20048;-82
2022/04/18 00:04:35;;;;;;;21.27;14.20;;;;;;;;;;5059770;28;20071;-82
2022/04/18 00:07:01;;;;;;;18.25;12.80;;;;;;;;;;5061945;28;20037;-81
2022/04/18 00:09:30;;;;;;;23.65;14.15;;;;;;;;;;5061779;28;20098;-81
2022/04/18 00:11:56;;;;;;;19.25;13.55;;;;;;;;;;5064839;28;20077;-82
2022/04/18 00:14:22;;;;;;;18.77;13.05;;;;;;;;;;5065632;28;20053;-81
2022/04/18 00:16:48;;;;;;;19.42;13.18;;;;;;;;;;5062202;28;20116;-80
2022/04/18 00:19:14;;;;;;;19.10;12.75;;;;;;;;;;5056082;28;20049;-82
2022/04/18 00:21:40;;;;;;;19.55;12.98;;;;;;;;;;5044027;28;20120;-81
2022/04/18 00:24:08;;;;;;;19.70;13.50;;;;;;;;;;5056820;28;20175;-82
2022/04/18 00:26:37;;;;;;;18.67;13.43;;;;;;;;;;5058243;28;20461;-81
2022/04/18 00:29:03;;;;;;;21.80;13.63;;;;;;;;;;5059332;28;20051;-81
2022/04/18 00:31:29;;;;;;;21.13;13.18;;;;;;;;;;5046838;28;20071;-82
2022/04/18 00:33:55;;;;;;;20.08;13.77;;;;;;;;;;5073745;28;20041;-81
2022/04/18 00:36:21;;;;;;;19.83;13.02;;;;;;;;;;5060864;28;20053;-81
2022/04/18 00:38:47;;;;;;;21.17;13.65;;;;;;;;;;5039082;28;20049;-83
2022/04/18 00:41:13;;;;;;;22.20;13.35;;;;;;;;;;5052523;28;20045;-81
2022/04/18 00:43:46;;;;;;;17.67;13.43;;;;;;;;;;5063555;28;20041;-81
2022/04/18 00:46:12;;;;;;;19.63;13.52;;;;;;;;;;5057100;28;20044;-81
2022/04/18 00:48:39;;;;;;;18.73;13.60;;;;;;;;;;5057479;28;20051;-82
2022/04/18 00:51:05;;;;;;;20.02;13.05;;;;;;;;;;5061829;28;20109;-81
2022/04/18 00:53:32;;;;;;;18.38;13.57;;;;;;;;;;5062134;28;20045;-82
2022/04/18 00:55:59;;;;;;;20.67;14.82;;;;;;;;;;5063918;28;20041;-82
2022/04/18 00:58:25;;;;;;;22.63;14.48;;;;;;;;;;5060274;28;20065;-82
2022/04/18 01:00:52;;;;;;;20.50;13.95;;;;;;;;;;5060621;28;20072;-82
2022/04/18 01:03:19;;;;;;;22.05;13.85;;;;;;;;;;5063366;28;20052;-81
2022/04/18 01:05:46;;;;;;;23.45;14.10;;;;;;;;;;5062173;28;20045;-81
2022/04/18 01:08:12;;;;;;;22.75;14.82;;;;;;;;;;5072436;28;20096;-81
2022/04/18 01:10:39;;;;;;;22.00;14.98;;;;;;;;;;5064682;28;20043;-81
2022/04/18 01:13:05;;;;;;;22.02;15.13;;;;;;;;;;5062926;28;20044;-81
2022/04/18 01:15:31;;;;;;;24.58;14.93;;;;;;;;;;5057046;28;20167;-81
2022/04/18 01:17:57;;;;;;;22.85;15.32;;;;;;;;;;5058322;28;20130;-81
2022/04/18 01:20:23;;;;;;;23.38;15.32;;;;;;;;;;5059523;28;20067;-81
2022/04/18 01:22:51;;;;;;;21.83;15.52;;;;;;;;;;5059805;28;20037;-82
2022/04/18 01:30:57;;;;;;;21.42;15.73;;;;;;;;;;5059556;28;20073;-82
2022/04/18 01:33:24;;;;;;;25.65;16.70;;;;;;;;;;5059057;28;20052;-80
2022/04/18 01:35:50;;;;;;;23.35;16.33;;;;;;;;;;5062119;28;20040;-81
2022/04/18 01:38:16;;;;;;;25.00;16.50;;;;;;;;;;5058450;28;20044;-81
2022/04/18 01:40:42;;;;;;;23.50;16.48;;;;;;;;;;5058085;28;20517;-81
2022/04/18 01:43:08;;;;;;;24.45;16.67;;;;;;;;;;5059707;28;20049;-82
2022/04/18 01:45:37;;;;;;;24.67;17.13;;;;;;;;;;5056210;28;20072;-81
2022/04/18 01:48:03;;;;;;;25.20;16.90;;;;;;;;;;5060867;28;20200;-81
2022/04/18 01:50:29;;;;;;;25.33;17.20;;;;;;;;;;5060165;28;20041;-81
2022/04/18 01:52:56;;;;;;;24.70;16.95;;;;;;;;;;5060437;28;20418;-81
2022/04/18 01:55:22;;;;;;;24.63;16.73;;;;;;;;;;5062061;28;20036;-81
2022/04/18 01:57:48;;;;;;;22.80;16.25;;;;;;;;;;5059389;28;20060;-81
2022/04/18 02:00:14;;;;;;;24.63;16.42;;;;;;;;;;5058555;28;20136;-80
2022/04/18 02:02:40;;;;;;;29.00;17.88;;;;;;;;;;5060576;28;20040;-81
2022/04/18 02:05:10;;;;;;;23.73;16.40;;;;;;;;;;5059029;28;20091;-81
2022/04/18 02:07:36;;;;;;;22.80;15.77;;;;;;;;;;5056854;28;20056;-80
2022/04/18 02:10:02;;;;;;;21.65;14.93;;;;;;;;;;5057987;28;20491;-80
2022/04/18 02:12:28;;;;;;;23.95;15.52;;;;;;;;;;5046205;28;20067;-81
2022/04/18 02:14:54;;;;;;;23.83;15.50;;;;;;;;;;5059613;28;20132;-81
2022/04/18 02:17:20;;;;;;;25.90;15.50;;;;;;;;;;5055660;28;20037;-81
2022/04/18 02:19:46;;;;;;;21.63;15.00;;;;;;;;;;5054890;28;20487;-80
2022/04/18 02:22:13;;;;;;;21.98;14.70;;;;;;;;;;5060339;28;20064;-81
2022/04/18 02:24:39;;;;;;;22.40;15.15;;;;;;;;;;5060774;28;20116;-80
2022/04/18 02:27:06;;;;;;;20.13;14.13;;;;;;;;;;5057091;28;20040;-80
2022/04/18 02:29:32;;;;;;;19.55;14.27;;;;;;;;;;5050797;28;20506;-81
2022/04/18 02:34:44;;;;;;;20.90;14.07;;;;;;;;;;5055685;28;20045;-81
2022/04/18 02:37:10;;;;;;;23.08;14.90;;;;;;;;;;5058222;28;20071;-81
2022/04/18 02:39:36;;;;;;;21.55;15.18;;;;;;;;;;5059237;28;20047;-81
2022/04/18 02:42:02;;;;;;;20.40;14.23;;;;;;;;;;5054179;28;20041;-81
2022/04/18 02:44:28;;;;;;;20.33;14.85;;;;;;;;;;5061075;28;20049;-79
2022/04/18 02:46:55;;;;;;;21.70;14.70;;;;;;;;;;5059748;28;20171;-80
2022/04/18 02:49:21;;;;;;;19.50;14.48;;;;;;;;;;5060625;28;20449;-81
2022/04/18 02:51:47;;;;;;;20.88;15.57;;;;;;;;;;5057123;28;20045;-80
2022/04/18 02:54:13;;;;;;;23.60;15.63;;;;;;;;;;5052518;28;20048;-81
2022/04/18 02:56:39;;;;;;;19.85;14.20;;;;;;;;;;5054690;28;20061;-80
2022/04/18 02:59:05;;;;;;;21.13;15.25;;;;;;;;;;5057481;28;20040;-81
2022/04/18 03:01:31;;;;;;;23.42;15.13;;;;;;;;;;5058057;28;20056;-81
2022/04/18 03:03:57;;;;;;;20.00;14.45;;;;;;;;;;5042272;28;20045;-81
2022/04/18 03:06:23;;;;;;;21.60;14.57;;;;;;;;;;5059890;28;20052;-80
2022/04/18 03:08:49;;;;;;;23.55;15.05;;;;;;;;;;5060499;28;20104;-81
2022/04/18 03:11:15;;;;;;;22.95;14.52;;;;;;;;;;5054396;28;20363;-82
2022/04/18 03:13:44;;;;;;;21.38;14.25;;;;;;;;;;5058072;28;20084;-80
2022/04/18 03:16:11;;;;;;;18.85;14.52;;;;;;;;;;5060750;28;20037;-81
2022/04/18 03:18:37;;;;;;;20.38;14.55;;;;;;;;;;5053878;28;20048;-81
2022/04/18 03:21:03;;;;;;;22.05;14.98;;;;;;;;;;5060031;28;20101;-80
2022/04/18 03:23:29;;;;;;;21.95;14.52;;;;;;;;;;5055864;28;20044;-81
2022/04/18 03:25:57;;;;;;;20.95;14.35;;;;;;;;;;5056916;28;20056;-80
2022/04/18 03:28:23;;;;;;;22.00;14.57;;;;;;;;;;5059280;28;20579;-81
2022/04/18 03:30:49;;;;;;;20.35;14.05;;;;;;;;;;5055526;28;20085;-82
2022/04/18 03:33:15;;;;;;;20.02;14.23;;;;;;;;;;5057594;28;20045;-81
2022/04/18 03:41:11;;;;;;;20.45;14.30;;;;;;;;;;5061260;28;20452;-81
2022/04/18 03:43:38;;;;;;;19.77;13.73;;;;;;;;;;5055344;28;20044;-82
2022/04/18 03:46:04;;;;;;;21.90;14.80;;;;;;;;;;5065914;28;20110;-81
2022/04/18 03:48:30;;;;;;;20.20;13.30;;;;;;;;;;5063150;28;20032;-81
2022/04/18 03:50:57;;;;;;;20.25;14.32;;;;;;;;;;5065511;28;20044;-81
2022/04/18 03:53:26;;;;;;;19.38;13.88;;;;;;;;;;5058114;28;20406;-81
2022/04/18 03:55:52;;;;;;;24.40;14.50;;;;;;;;;;5066020;28;20056;-81
2022/04/18 03:58:18;;;;;;;22.42;14.07;;;;;;;;;;5065088;28;20065;-81
2022/04/18 04:00:44;;;;;;;18.92;13.38;;;;;;;;;;5062335;28;20048;-81
2022/04/18 04:03:10;;;;;;;20.23;13.88;;;;;;;;;;5061732;28;20041;-81
2022/04/18 04:05:36;;;;;;;20.33;14.07;;;;;;;;;;5060870;28;20049;-80
2022/04/18 04:08:03;;;;;;;20.48;14.32;;;;;;;;;;5064348;28;20049;-80
2022/04/18 04:10:29;;;;;;;22.88;14.30;;;;;;;;;;5064287;28;20124;-80
2022/04/18 04:12:55;;;;;;;21.05;13.35;;;;;;;;;;5063334;28;20044;-80
2022/04/18 04:15:21;;;;;;;19.92;14.30;;;;;;;;;;5074126;28;20047;-80
2022/04/18 04:17:47;;;;;;;20.23;13.60;;;;;;;;;;5060503;28;20053;-80
2022/04/18 04:20:13;;;;;;;21.33;14.02;;;;;;;;;;5062816;28;20556;-81
2022/04/18 04:22:47;;;;;;;21.17;14.48;;;;;;;;;;5055512;28;20041;-80
2022/04/18 04:25:13;;;;;;;19.80;13.57;;;;;;;;;;5051074;28;20499;-80
2022/04/18 04:27:39;;;;;;;22.02;14.10;;;;;;;;;;5059317;28;20049;-79
2022/04/18 04:30:06;;;;;;;19.52;13.52;;;;;;;;;;5056895;28;20666;-80
2022/04/18 04:32:31;;;;;;;21.17;13.48;;;;;;;;;;5061412;28;20112;-81
2022/04/18 04:35:01;;;;;;;21.67;13.68;;;;;;;;;;5059579;28;20087;-80
2022/04/18 04:37:27;;;;;;;18.90;12.88;;;;;;;;;;5058530;28;20037;-81
2022/04/18 04:39:53;;;;;;;20.83;14.07;;;;;;;;;;5063120;28;20041;-81
2022/04/18 04:42:19;;;;;;;19.67;13.65;;;;;;;;;;5055153;28;20045;-81
2022/04/18 04:44:45;;;;;;;18.60;13.30;;;;;;;;;;5056029;28;20044;-81
2022/04/18 04:47:11;;;;;;;18.70;13.20;;;;;;;;;;5056576;28;20037;-80
2022/04/18 04:49:37;;;;;;;21.17;13.85;;;;;;;;;;5044839;28;20049;-81
2022/04/18 04:52:05;;;;;;;20.65;14.05;;;;;;;;;;5062122;28;20065;-81
2022/04/18 04:54:31;;;;;;;19.13;13.70;;;;;;;;;;5064456;28;20049;-81
2022/04/18 04:56:57;;;;;;;19.65;13.73;;;;;;;;;;5063348;28;20045;-80
2022/04/18 04:59:23;;;;;;;19.60;13.48;;;;;;;;;;5061364;28;20045;-80
2022/04/18 05:01:49;;;;;;;23.13;14.13;;;;;;;;;;5058930;28;20040;-80
2022/04/18 05:04:15;;;;;;;22.27;13.70;;;;;;;;;;5065107;28;20037;-81
2022/04/18 05:06:41;;;;;;;21.15;14.07;;;;;;;;;;5060882;28;20060;-81
2022/04/18 05:09:07;;;;;;;20.67;13.45;;;;;;;;;;5063529;28;20041;-81
2022/04/18 05:11:33;;;;;;;20.05;13.95;;;;;;;;;;5062124;28;20127;-81
2022/04/18 05:14:00;;;;;;;19.38;13.18;;;;;;;;;;5061870;28;20171;-80
2022/04/18 05:16:26;;;;;;;19.58;13.07;;;;;;;;;;5058631;28;20050;-81
2022/04/18 05:18:52;;;;;;;22.60;13.10;;;;;;;;;;5061716;28;20130;-81
2022/04/18 05:21:18;;;;;;;20.35;14.35;;;;;;;;;;5059104;28;20037;-81
2022/04/18 05:23:44;;;;;;;22.05;14.63;;;;;;;;;;5061763;28;20100;-81
2022/04/18 05:26:10;;;;;;;27.35;15.63;;;;;;;;;;5057454;28;105830;-81
2022/04/18 05:28:37;;;;;;;24.15;15.48;;;;;;;;;;5061142;28;20052;-82
2022/04/18 05:31:03;;;;;;;21.88;15.20;;;;;;;;;;5062345;28;20049;-81
2022/04/18 05:33:29;;;;;;;19.23;14.18;;;;;;;;;;5061336;28;20045;-82
2022/04/18 05:35:55;;;;;;;17.25;13.10;;;;;;;;;;5061018;28;20103;-81
2022/04/18 05:38:21;;;;;;;19.75;13.57;;;;;;;;;;5061490;28;20037;-81
2022/04/18 05:40:47;;;;;;;17.13;13.27;;;;;;;;;;5061300;28;20458;-83
2022/04/18 05:43:15;;;;;;;21.27;13.45;;;;;;;;;;5055118;28;20054;-81
2022/04/18 05:45:41;;;;;;;17.42;13.13;;;;;;;;;;5057880;28;20124;-81
2022/04/18 05:48:07;;;;;;;18.92;13.43;;;;;;;;;;5060041;28;20612;-82
2022/04/18 05:50:33;;;;;;;16.73;12.43;;;;;;;;;;5044226;28;20116;-81
2022/04/18 05:52:59;;;;;;;17.90;12.13;;;;;;;;;;5060025;28;20477;-84
2022/04/18 05:55:25;;;;;;;15.52;12.13;;;;;;;;;;5062655;28;20063;-81
2022/04/18 05:57:52;;;;;;;18.55;12.05;;;;;;;;;;5072053;28;20097;-86
2022/04/18 06:00:18;;;;;;;16.67;12.23;;;;;;;;;;5056084;28;20041;-82
2022/04/18 06:02:44;;;;;;;19.35;12.13;;;;;;;;;;5054635;28;20045;-82
2022/04/18 06:05:16;;;;;;;18.83;12.27;;;;;;;;;;5060550;28;20475;-82
2022/04/18 06:07:45;;;;;;;17.80;11.75;;;;;;;;;;5060751;28;20163;-82
2022/04/18 06:10:11;;;;;;;16.50;11.95;;;;;;;;;;5060261;28;20052;-81
2022/04/18 06:12:37;;;;;;;17.45;12.10;;;;;;;;;;5065923;28;20474;-83
2022/04/18 06:15:03;;;;;;;18.42;12.27;;;;;;;;;;5069029;28;20080;-81
2022/04/18 06:17:32;;;;;;;16.67;12.45;;;;;;;;;;5062816;28;20059;-84
2022/04/18 06:19:58;;;;;;;16.27;12.30;;;;;;;;;;5028932;28;20511;-82
2022/04/18 06:22:26;;;;;;;15.63;12.10;;;;;;;;;;5042733;28;20052;-83
2022/04/18 06:24:52;;;;;;;17.40;12.05;;;;;;;;;;5064092;28;20530;-83
2022/04/18 06:27:19;;;;;;;16.17;11.57;;;;;;;;;;5058791;28;20049;-86
2022/04/18 06:29:48;;;;;;;14.73;11.32;;;;;;;;;;5056207;28;20079;-82
2022/04/18 06:32:14;;;;;;;16.05;11.60;;;;;;;;;;5059864;28;20049;-83
2022/04/18 06:34:40;;;;;;;14.38;11.20;;;;;;;;;;5057612;28;20402;-84
2022/04/18 06:37:07;;;;;;;15.77;12.20;;;;;;;;;;5059343;28;20121;-83
2022/04/18 06:39:33;;;;;;;15.20;11.70;;;;;;;;;;5043835;28;20053;-82
2022/04/18 06:42:00;;;;;;;19.52;11.57;;;;;;;;;;5053892;28;20459;-82
2022/04/18 06:44:28;;;;;;;15.40;11.02;;;;;;;;;;5040931;28;20070;-83
2022/04/18 06:46:54;;;;;;;15.48;11.30;;;;;;;;;;5060036;28;20037;-83
2022/04/18 06:49:20;;;;;;;17.92;11.10;;;;;;;;;;5056864;28;20048;-82
2022/04/18 06:51:46;;;;;;;15.48;10.70;;;;;;;;;;5059226;28;20049;-84
2022/04/18 06:54:15;;;;;;;15.90;10.35;;;;;;;;;;5032291;28;20038;-85
2022/04/18 06:56:59;;;;;;;15.55;9.90;;;;;;;;;;5057635;28;20075;-84
2022/04/18 06:59:25;;;;;;;15.60;10.35;;;;;;;;;;5054065;28;20048;-84
2022/04/18 07:01:51;;;;;;;11.82;9.40;;;;;;;;;;5066241;28;20053;-84
2022/04/18 07:04:17;;;;;;;12.13;9.13;;;;;;;;;;5044219;28;20055;-83
2022/04/18 07:06:46;;;;;;;13.65;9.25;;;;;;;;;;5071238;28;20082;-82
2022/04/18 07:09:12;;;;;;;15.23;8.88;;;;;;;;;;5047550;28;20079;-83
2022/04/18 07:11:40;;;;;;;14.52;8.65;;;;;;;;;;5067474;28;20040;-82
2022/04/18 07:14:08;;;;;;;9.65;7.80;;;;;;;;;;5068033;28;20595;-83
2022/04/18 07:16:35;;;;;;;13.57;8.45;;;;;;;;;;5063734;28;20265;-82
2022/04/18 07:19:01;;;;;;;12.23;8.20;;;;;;;;;;5063094;28;20051;-82
2022/04/18 07:21:27;;;;;;;11.73;8.00;;;;;;;;;;5048572;28;20071;-83
2022/04/18 07:23:53;;;;;;;11.35;7.72;;;;;;;;;;5071535;28;20044;-84
2022/04/18 07:26:20;;;;;;;11.32;7.20;;;;;;;;;;5074657;28;20116;-83
2022/04/18 07:28:47;;;;;;;11.82;7.45;;;;;;;;;;5076176;28;20049;-84
2022/04/18 07:31:13;;;;;;;9.88;7.30;;;;;;;;;;5072304;28;20060;-83
2022/04/18 07:33:39;;;;;;;12.23;7.45;;;;;;;;;;5074342;28;20040;-83
2022/04/18 07:36:05;;;;;;;10.77;7.05;;;;;;;;;;5075314;28;20045;-84
2022/04/18 07:38:50;;;;;;;11.32;7.35;;;;;;;;;;5071994;28;20048;-83
2022/04/18 07:41:26;;;;;;;11.13;7.82;;;;;;;;;;5071532;28;20041;-82
2022/04/18 07:43:53;;;;;;;9.77;6.72;;;;;;;;;;5069581;28;20044;-83
2022/04/18 07:46:19;;;;;;;10.00;6.85;;;;;;;;;;5072750;28;20040;-83
2022/04/18 07:48:47;;;;;;;10.20;7.00;;;;;;;;;;5069251;28;20106;-82
2022/04/18 07:51:32;;;;;;;9.07;7.13;;;;;;;;;;5070635;28;20032;-83
2022/04/18 07:54:01;;;;;;;11.18;6.85;;;;;;;;;;5069651;28;20104;-83
2022/04/18 07:56:27;;;;;;;9.40;7.10;;;;;;;;;;5081192;28;20037;-83
2022/04/18 07:58:54;;;;;;;10.43;6.68;;;;;;;;;;5068240;28;20037;-83
2022/04/18 08:01:20;;;;;;;11.05;7.43;;;;;;;;;;5077919;28;20041;-82
2022/04/18 08:03:47;;;;;;;10.32;6.32;;;;;;;;;;5059695;28;20056;-82
2022/04/18 08:06:13;;;;;;;12.02;6.90;;;;;;;;;;5066203;28;20069;-83
2022/04/18 08:08:39;;;;;;;11.63;6.60;;;;;;;;;;5067888;28;20076;-83
2022/04/18 08:11:11;;;;;;;10.55;6.95;;;;;;;;;;5069206;28;20086;-82
2022/04/18 08:13:37;;;;;;;9.82;7.00;;;;;;;;;;5062272;28;20046;-81
2022/04/18 08:16:03;;;;;;;10.88;6.43;;;;;;;;;;5071271;28;20041;-81
2022/04/18 08:18:36;;;;;;;12.50;7.18;;;;;;;;;;5073752;28;20045;-81
2022/04/18 08:21:02;;;;;;;11.15;6.97;;;;;;;;;;5072060;28;20045;-81
2022/04/18 08:23:28;;;;;;;11.07;6.72;;;;;;;;;;5054289;28;20121;-82
2022/04/18 08:25:54;;;;;;;10.25;6.55;;;;;;;;;;5063186;28;20049;-82
2022/04/18 08:28:20;;;;;;;10.35;6.82;;;;;;;;;;5075689;28;20135;-83
2022/04/18 08:30:46;;;;;;;10.00;6.70;;;;;;;;;;5075158;28;20098;-81
2022/04/18 08:33:12;;;;;;;9.65;7.00;;;;;;;;;;5077026;28;20041;-82
2022/04/18 08:35:38;;;;;;;10.20;6.45;;;;;;;;;;5076469;28;20037;-81
2022/04/18 08:38:04;;;;;;;9.57;6.47;;;;;;;;;;5075449;28;20037;-81
2022/04/18 08:40:30;;;;;;;10.50;6.65;;;;;;;;;;5075779;28;20071;-82
2022/04/18 08:42:59;;;;;;;9.90;6.90;;;;;;;;;;5075789;28;20112;-82
2022/04/18 08:45:26;;;;;;;10.32;6.10;;;;;;;;;;5040126;28;20055;-80
2022/04/18 08:53:26;;;;;;;10.15;6.40;;;;;;;;;;5070219;28;20045;-82
2022/04/18 08:55:52;;;;;;;10.10;5.90;;;;;;;;;;5052636;28;20064;-82
2022/04/18 08:58:18;;;;;;;12.73;6.60;;;;;;;;;;5069350;28;20045;-82
2022/04/18 09:00:44;;;;;;;11.05;6.40;;;;;;;;;;5066525;28;20041;-82
2022/04/18 09:03:11;;;;;;;10.82;6.57;;;;;;;;;;5056614;28;20416;-79
2022/04/18 09:05:37;;;;;;;9.18;5.93;;;;;;;;;;5064620;28;20037;-81
2022/04/18 09:08:05;;;;;;;9.73;6.90;;;;;;;;;;5062285;28;20080;-79
2022/04/18 09:10:31;;;;;;;9.95;6.30;;;;;;;;;;5050181;28;20046;-81
2022/04/18 09:13:04;;;;;;;11.38;6.32;;;;;;;;;;5062467;28;20045;-82
2022/04/18 09:15:40;;;;;;;9.98;5.93;;;;;;;;;;5062366;28;20044;-83
2022/04/18 09:18:25;;;;;;;10.80;6.35;;;;;;;;;;5057690;28;20051;-80
2022/04/18 09:20:55;;;;;;;10.27;6.20;;;;;;;;;;5053386;28;20055;-82
2022/04/18 09:23:22;;;;;;;9.60;6.40;;;;;;;;;;5064228;28;20040;-82
2022/04/18 09:25:51;;;;;;;10.68;6.75;;;;;;;;;;5064714;28;20503;-81
2022/04/18 09:28:17;;;;;;;10.88;6.28;;;;;;;;;;5065252;28;20516;-81
2022/04/18 09:30:43;;;;;;;9.30;6.50;;;;;;;;;;5051315;28;20049;-81
2022/04/18 09:33:09;;;;;;;11.18;6.40;;;;;;;;;;5047906;28;20075;-80
2022/04/18 09:35:36;;;;;;;10.15;5.65;;;;;;;;;;5063283;28;20108;-81
2022/04/18 09:38:02;;;;;;;8.43;5.63;;;;;;;;;;5064664;28;20045;-80
2022/04/18 09:40:28;;;;;;;9.13;5.63;;;;;;;;;;5064572;28;20569;-80
2022/04/18 09:42:56;;;;;;;8.50;6.05;;;;;;;;;;5055588;28;20107;-80
2022/04/18 09:45:22;;;;;;;9.10;6.00;;;;;;;;;;5053768;28;20040;-81
2022/04/18 09:47:55;;;;;;;9.13;5.80;;;;;;;;;;5038145;28;20051;-81
2022/04/18 09:53:17;;;;;;;9.45;5.75;;;;;;;;;;5064905;28;20076;-79
2022/04/18 09:55:45;;;;;;;9.88;6.00;;;;;;;;;;5045127;28;20041;-80
2022/04/18 09:58:11;;;;;;;8.93;6.03;;;;;;;;;;5059329;28;20056;-81
2022/04/18 10:00:38;;;;;;;10.70;5.43;;;;;;;;;;5054177;28;20045;-81
2022/04/18 10:03:04;;;;;;;9.88;6.00;;;;;;;;;;5063063;28;20175;-80
2022/04/18 10:05:30;;;;;;;9.02;6.38;;;;;;;;;;5060053;28;20098;-80
2022/04/18 10:08:03;;;;;;;9.80;5.75;;;;;;;;;;5062113;28;20059;-82
2022/04/18 10:10:29;;;;;;;9.73;5.88;;;;;;;;;;5063700;28;20068;-80
2022/04/18 10:12:55;;;;;;;10.00;6.20;;;;;;;;;;5055991;28;20103;-81
2022/04/18 10:15:23;;;;;;;8.30;5.63;;;;;;;;;;5063339;28;20044;-80
2022/04/18 10:17:49;;;;;;;8.15;5.60;;;;;;;;;;5066786;28;20079;-81
2022/04/18 10:20:34;;;;;;;9.07;5.70;;;;;;;;;;5062406;28;20115;-81
2022/04/18 10:23:19;;;;;;;10.13;5.43;;;;;;;;;;5063206;28;20052;-80
2022/04/18 10:26:04;;;;;;;8.30;5.05;;;;;;;;;;5061006;28;20051;-80
2022/04/18 10:28:39;;;;;;;8.82;5.07;;;;;;;;;;5059874;28;20044;-82
2022/04/18 10:31:11;;;;;;;9.85;5.28;;;;;;;;;;5059146;28;20056;-80
2022/04/18 10:33:37;;;;;;;9.07;5.55;;;;;;;;;;5067121;28;20055;-81
2022/04/18 10:36:04;;;;;;;8.15;4.68;;;;;;;;;;5053680;28;20495;-81
2022/04/18 10:38:36;;;;;;;8.90;5.10;;;;;;;;;;5058483;28;20045;-80
2022/04/18 10:41:15;;;;;;;8.55;4.70;;;;;;;;;;5059590;28;20048;-80
2022/04/18 10:43:53;;;;;;;7.72;4.38;;;;;;;;;;5061257;28;20068;-80
2022/04/18 10:46:20;;;;;;;7.28;3.90;;;;;;;;;;5061227;28;20086;-80
2022/04/18 10:48:54;;;;;;;7.20;4.22;;;;;;;;;;5061028;28;20103;-80
2022/04/18 10:51:30;;;;;;;6.40;4.20;;;;;;;;;;5060612;28;20124;-80
2022/04/18 10:54:09;;;;;;;7.70;4.05;;;;;;;;;;5055973;28;20053;-79
2022/04/18 10:56:47;;;;;;;6.80;3.95;;;;;;;;;;5055404;28;20105;-81
2022/04/18 10:59:14;;;;;;;7.78;5.00;;;;;;;;;;5062328;28;20041;-80
2022/04/18 11:01:42;;;;;;;9.18;4.68;;;;;;;;;;5058211;28;20054;-80
2022/04/18 11:04:09;;;;;;;9.25;4.82;;;;;;;;;;5048960;28;20049;-79
2022/04/18 11:06:39;;;;;;;6.78;4.28;;;;;;;;;;5061263;28;20100;-79
2022/04/18 11:09:32;;;;;;;7.38;4.35;;;;;;;;;;5056672;28;20092;-81
2022/04/18 11:12:05;;;;;;;6.22;4.13;;;;;;;;;;5046676;28;20052;-81
2022/04/18 11:14:41;;;;;;;9.77;4.28;;;;;;;;;;5063341;28;20051;-79
2022/04/18 11:17:07;;;;;;;6.80;4.47;;;;;;;;;;5048895;28;20045;-81
2022/04/18 11:19:37;;;;;;;6.57;4.65;;;;;;;;;;5040804;28;20041;-78
2022/04/18 11:22:04;;;;;;;9.73;4.50;;;;;;;;;;5053651;28;20403;-80
2022/04/18 11:24:42;;;;;;;8.13;4.60;;;;;;;;;;5058325;28;20057;-80
2022/04/18 11:27:16;;;;;;;7.18;4.72;;;;;;;;;;5051023;28;20046;-81
2022/04/18 11:29:43;;;;;;;9.38;4.75;;;;;;;;;;5059312;28;20077;-82
2022/04/18 11:32:15;;;;;;;9.93;4.32;;;;;;;;;;5043664;28;20093;-79
2022/04/18 11:34:43;;;;;;;8.70;4.45;;;;;;;;;;5060102;28;20047;-81
2022/04/18 11:37:10;;;;;;;8.75;5.28;;;;;;;;;;5055683;28;20537;-80
2022/04/18 11:39:53;;;;;;;8.52;4.68;;;;;;;;;;5062047;28;20049;-79
2022/04/18 11:42:20;;;;;;;8.38;4.78;;;;;;;;;;5060662;28;20063;-82
2022/04/18 11:44:47;;;;;;;7.75;4.55;;;;;;;;;;5060759;28;20048;-82
2022/04/18 11:47:14;;;;;;;7.50;5.20;;;;;;;;;;5059744;28;20047;-80
2022/04/18 11:49:41;;;;;;;7.80;4.55;;;;;;;;;;5060509;28;20045;-79
2022/04/18 11:52:16;;;;;;;9.40;4.78;;;;;;;;;;5058400;28;20056;-81
2022/04/18 11:54:56;;;;;;;8.43;4.68;;;;;;;;;;5055881;28;20033;-80
2022/04/18 11:57:22;;;;;;;7.38;4.90;;;;;;;;;;5053108;28;20116;-80
2022/04/18 11:59:48;;;;;;;7.35;4.53;;;;;;;;;;5053174;28;20105;-78
2022/04/18 12:06:44;;;;;;;8.07;4.50;;;;;;;;;;5064782;28;20049;-78
2022/04/18 12:08:03;;;;;;;7.80;4.50;;;;;;;;;;5070243;28;20044;-80
2022/04/18 12:10:35;;;;;;;9.85;4.68;;;;;;;;;;5069022;28;20080;-82
2022/04/18 12:13:01;;;;;;;;;;;;;;;;;;5065225;28;20168;-82
2022/04/18 12:15:28;;;;;;;8.75;4.68;;;;;;;;;;5069208;28;20352;-83
2022/04/18 12:17:55;;;;;;;9.55;4.70;;;;;;;;;;5064367;28;20044;-79
2022/04/18 12:20:28;;;;;;;8.95;4.70;;;;;;;;;;5059281;28;20029;-79
2022/04/18 12:22:58;;;;;;;8.20;4.82;;;;;;;;;;5079648;28;20037;-79
2022/04/18 12:25:25;;;;;;;8.88;4.70;;;;;;;;;;5079157;28;20101;-80
2022/04/18 12:27:52;;;;;;;8.25;4.68;;;;;;;;;;5074144;28;20064;-80
2022/04/18 12:30:19;;;;;;;9.35;4.47;;;;;;;;;;5073081;28;20044;-79
2022/04/18 12:32:47;;;;;;;8.20;4.50;;;;;;;;;;5076341;28;20048;-80
2022/04/18 12:35:37;;;;;;;7.40;4.53;;;;;;;;;;5079615;28;20053;-79
2022/04/18 12:38:04;;;;;;;6.40;4.28;;;;;;;;;;5074016;28;20033;-78
2022/04/18 12:40:34;;;;;;;7.60;4.30;;;;;;;;;;5077010;28;20044;-80
2022/04/18 12:43:05;;;;;;;8.97;4.47;;;;;;;;;;5065175;28;20064;-82
2022/04/18 12:46:00;;;;;;;7.75;3.67;;;;;;;;;;5060497;28;20048;-82
2022/04/18 12:48:30;;;;;;;6.93;4.25;;;;;;;;;;5032901;28;20496;-82
2022/04/18 12:50:57;;;;;;;6.28;3.92;;;;;;;;;;5054181;28;20056;-82
2022/04/18 12:53:43;;;;;;;6.82;4.07;;;;;;;;;;5052340;28;20077;-81
2022/04/18 12:56:10;;;;;;;7.78;5.03;;;;;;;;;;5059715;28;20041;-83
2022/04/18 12:58:39;;;;;;;7.03;4.65;;;;;;;;;;5061767;28;20495;-81
2022/04/18 13:01:06;;;;;;;7.25;4.18;;;;;;;;;;5061558;28;20415;-81
2022/04/18 13:03:40;;;;;;;6.80;4.55;;;;;;;;;;5063249;28;20043;-79
2022/04/18 13:06:06;;;;;;;6.38;4.05;;;;;;;;;;5062334;28;20052;-80
2022/04/18 13:08:36;;;;;;;7.68;4.35;;;;;;;;;;5061621;28;20186;-81
2022/04/18 13:11:02;;;;;;;9.38;3.80;;;;;;;;;;5057289;28;20075;-81
2022/04/18 13:13:28;;;;;;;7.30;4.32;;;;;;;;;;5061449;28;20102;-81
2022/04/18 13:15:54;;;;;;;7.05;4.10;;;;;;;;;;5061591;28;20075;-81
2022/04/18 13:18:21;;;;;;;7.10;4.18;;;;;;;;;;5045568;28;20045;-80
2022/04/18 13:20:48;;;;;;;7.28;4.30;;;;;;;;;;5060969;28;20045;-75
2022/04/18 13:23:14;;;;;;;7.00;4.25;;;;;;;;;;5063990;28;20041;-80
2022/04/18 13:25:40;;;;;;;6.78;4.60;;;;;;;;;;5061077;28;20099;-80
2022/04/18 13:28:08;;;;;;;8.48;4.70;;;;;;;;;;5062513;28;20061;-80
2022/04/18 13:30:38;;;;;;;7.20;4.60;;;;;;;;;;5064060;28;20041;-79
2022/04/18 13:33:05;;;;;;;8.05;4.97;;;;;;;;;;5058596;28;20495;-81
2022/04/18 13:36:30;;;;;;;7.18;4.40;;;;;;;;;;5060644;28;20044;-81
2022/04/18 13:38:21;;;;;;;7.45;4.30;;;;;;;;;;5062027;28;20115;-81
2022/04/18 13:40:48;;;;;;;9.18;4.78;;;;;;;;;;5064073;28;20406;-80
2022/04/18 13:43:14;;;;;;;7.18;4.53;;;;;;;;;;5057598;28;20059;-81
2022/04/18 13:45:41;;;;;;;7.80;4.72;;;;;;;;;;5060572;28;20407;-80
2022/04/18 13:48:07;;;;;;;7.55;4.10;;;;;;;;;;5055817;28;20491;-79
2022/04/18 13:50:33;;;;;;;6.47;4.00;;;;;;;;;;5057575;28;20048;-80
2022/04/18 13:52:59;;;;;;;8.15;4.40;;;;;;;;;;5062046;28;20045;-80
2022/04/18 13:55:25;;;;;;;7.30;4.53;;;;;;;;;;5061053;28;20041;-82
2022/04/18 13:57:51;;;;;;;7.72;5.05;;;;;;;;;;5063795;28;20052;-80
2022/04/18 14:00:18;;;;;;;7.47;5.07;;;;;;;;;;5061777;28;20383;-80
2022/04/18 14:02:44;;;;;;;7.15;4.85;;;;;;;;;;5060596;28;20464;-81
2022/04/18 14:05:10;;;;;;;9.00;4.97;;;;;;;;;;5062262;28;20037;-80
2022/04/18 14:07:38;;;;;;;7.10;4.78;;;;;;;;;;5065428;28;20239;-79
2022/04/18 14:10:05;;;;;;;7.18;4.00;;;;;;;;;;5066807;28;20048;-80
2022/04/18 14:12:31;;;;;;;6.53;4.35;;;;;;;;;;5065111;28;20084;-82
2022/04/18 14:20:31;;;;;;;7.13;4.57;;;;;;;;;;5059078;28;20041;-81
2022/04/18 14:22:57;;;;;;;6.78;4.40;;;;;;;;;;5055655;28;20056;-81
2022/04/18 14:25:26;;;;;;;8.30;4.75;;;;;;;;;;5063426;28;20514;-81
2022/04/18 14:27:52;;;;;;;7.20;4.80;;;;;;;;;;5062516;28;20175;-82
2022/04/18 14:30:19;;;;;;;7.82;4.63;;;;;;;;;;5063025;28;20052;-81
2022/04/18 14:32:46;;;;;;;6.82;4.38;;;;;;;;;;5062190;28;20048;-81
2022/04/18 14:35:12;;;;;;;9.07;4.72;;;;;;;;;;5066623;28;20075;-80
2022/04/18 14:37:39;;;;;;;6.65;4.55;;;;;;;;;;5066523;28;20036;-79
2022/04/18 14:40:06;;;;;;;6.28;3.92;;;;;;;;;;5062896;28;20049;-79
2022/04/18 14:42:32;;;;;;;8.18;4.82;;;;;;;;;;5071264;28;20033;-79
2022/04/18 14:44:58;;;;;;;8.23;4.57;;;;;;;;;;5064402;28;20037;-80
2022/04/18 14:47:24;;;;;;;7.32;4.18;;;;;;;;;;5067553;28;20067;-80
2022/04/18 14:49:50;;;;;;;7.18;4.07;;;;;;;;;;5070966;28;20045;-80
2022/04/18 14:52:17;;;;;;;7.03;4.50;;;;;;;;;;5065772;28;20129;-82
2022/04/18 14:54:43;;;;;;;7.22;5.28;;;;;;;;;;5066580;28;20090;-81
2022/04/18 14:57:09;;;;;;;10.02;5.05;;;;;;;;;;5071782;28;20029;-82
2022/04/18 14:59:35;;;;;;;8.05;4.65;;;;;;;;;;5060869;28;20049;-81
2022/04/18 15:02:01;;;;;;;7.53;4.30;;;;;;;;;;5059792;28;20123;-80
2022/04/18 15:04:28;;;;;;;9.43;5.10;;;;;;;;;;5065756;28;20071;-80